sensor_id;sensor_type;location;lat;lon;timestamp;temperature;humidity
25108;DHT22;13090;53.422;7.670;2023-02-04T00:04:16;10.00;82.20
25108;DHT22;13090;53.422;7.670;2023-02-04T00:09:18;10.00;82.20
25108;DHT22;13090;53.422;7.670;2023-02-04T00:14:22;9.90;82.00
25108;DHT22;13090;53.422;7.670;2023-02-04T00:19:24;9.80;81.90
25108;DHT22;13090;53.422;7.670;2023-02-04T00:24:26;9.70;81.90
25108;DHT22;13090;53.422;7.670;2023-02-04T00:29:33;9.60;82.00
25108;DHT22;13090;53.422;7.670;2023-02-04T00:34:35;9.60;82.20
25108;DHT22;13090;53.422;7.670;2023-02-04T00:39:38;9.50;82.20
25108;DHT22;13090;53.422;7.670;2023-02-04T00:44:41;9.50;82.20
25108;DHT22;13090;53.422;7.670;2023-02-04T00:49:44;9.50;82.30
25108;DHT22;13090;53.422;7.670;2023-02-04T00:54:46;9.50;82.30
25108;DHT22;13090;53.422;7.670;2023-02-04T00:59:50;9.40;82.30
25108;DHT22;13090;53.422;7.670;2023-02-04T01:04:55;9.40;82.40
25108;DHT22;13090;53.422;7.670;2023-02-04T01:10:00;9.40;82.30
25108;DHT22;13090;53.422;7.670;2023-02-04T01:15:04;9.40;82.10
25108;DHT22;13090;53.422;7.670;2023-02-04T01:20:07;9.30;82.10
25108;DHT22;13090;53.422;7.670;2023-02-04T01:25:10;9.30;82.20
25108;DHT22;13090;53.422;7.670;2023-02-04T01:30:14;9.20;82.20
25108;DHT22;13090;53.422;7.670;2023-02-04T01:35:16;9.10;82.20
25108;DHT22;13090;53.422;7.670;2023-02-04T01:40:19;9.10;82.20
25108;DHT22;13090;53.422;7.670;2023-02-04T01:45:23;9.00;82.20
25108;DHT22;13090;53.422;7.670;2023-02-04T01:50:25;8.90;82.10
25108;DHT22;13090;53.422;7.670;2023-02-04T01:55:30;8.80;82.10
25108;DHT22;13090;53.422;7.670;2023-02-04T02:00:34;8.60;82.20
25108;DHT22;13090;53.422;7.670;2023-02-04T02:05:39;8.50;82.30
25108;DHT22;13090;53.422;7.670;2023-02-04T02:10:45;8.40;82.30
25108;DHT22;13090;53.422;7.670;2023-02-04T02:15:49;8.30;82.40
25108;DHT22;13090;53.422;7.670;2023-02-04T02:20:51;8.20;82.70
25108;DHT22;13090;53.422;7.670;2023-02-04T02:25:55;8.10;82.70
25108;DHT22;13090;53.422;7.670;2023-02-04T02:30:57;8.00;82.80
25108;DHT22;13090;53.422;7.670;2023-02-04T02:36:00;8.00;83.20
25108;DHT22;13090;53.422;7.670;2023-02-04T02:41:04;7.90;83.30
25108;DHT22;13090;53.422;7.670;2023-02-04T02:46:07;7.90;83.50
25108;DHT22;13090;53.422;7.670;2023-02-04T02:51:09;7.80;83.60
25108;DHT22;13090;53.422;7.670;2023-02-04T02:56:13;7.80;83.60
25108;DHT22;13090;53.422;7.670;2023-02-04T03:01:16;7.80;83.70
25108;DHT22;13090;53.422;7.670;2023-02-04T03:06:22;7.80;83.80
25108;DHT22;13090;53.422;7.670;2023-02-04T03:11:28;7.80;84.10
25108;DHT22;13090;53.422;7.670;2023-02-04T03:16:31;7.80;84.00
25108;DHT22;13090;53.422;7.670;2023-02-04T03:21:36;7.80;84.10
25108;DHT22;13090;53.422;7.670;2023-02-04T03:26:40;7.80;84.20
25108;DHT22;13090;53.422;7.670;2023-02-04T03:31:44;7.90;84.30
25108;DHT22;13090;53.422;7.670;2023-02-04T03:36:46;7.90;84.30
25108;DHT22;13090;53.422;7.670;2023-02-04T03:41:50;7.90;84.20
25108;DHT22;13090;53.422;7.670;2023-02-04T03:46:52;7.90;84.10
25108;DHT22;13090;53.422;7.670;2023-02-04T03:51:55;7.90;84.20
25108;DHT22;13090;53.422;7.670;2023-02-04T03:56:58;7.80;84.30
25108;DHT22;13090;53.422;7.670;2023-02-04T04:02:00;7.80;84.10
25108;DHT22;13090;53.422;7.670;2023-02-04T04:07:02;7.80;84.10
25108;DHT22;13090;53.422;7.670;2023-02-04T04:12:06;7.80;84.10
25108;DHT22;13090;53.422;7.670;2023-02-04T04:17:08;7.80;84.00
25108;DHT22;13090;53.422;7.670;2023-02-04T04:22:11;7.70;84.10
25108;DHT22;13090;53.422;7.670;2023-02-04T04:27:14;7.70;84.00
25108;DHT22;13090;53.422;7.670;2023-02-04T04:32:16;7.60;83.90
25108;DHT22;13090;53.422;7.670;2023-02-04T04:37:21;7.50;84.10
25108;DHT22;13090;53.422;7.670;2023-02-04T04:42:25;7.50;84.40
25108;DHT22;13090;53.422;7.670;2023-02-04T04:47:27;7.50;84.40
25108;DHT22;13090;53.422;7.670;2023-02-04T04:52:32;7.40;84.30
25108;DHT22;13090;53.422;7.670;2023-02-04T04:57:35;7.40;84.40
25108;DHT22;13090;53.422;7.670;2023-02-04T05:02:38;7.40;84.50
25108;DHT22;13090;53.422;7.670;2023-02-04T05:07:40;7.30;84.50
25108;DHT22;13090;53.422;7.670;2023-02-04T05:12:43;7.30;84.50
25108;DHT22;13090;53.422;7.670;2023-02-04T05:17:46;7.30;84.50
25108;DHT22;13090;53.422;7.670;2023-02-04T05:22:48;7.30;84.50
25108;DHT22;13090;53.422;7.670;2023-02-04T05:27:51;7.20;84.40
25108;DHT22;13090;53.422;7.670;2023-02-04T05:32:57;7.10;84.40
25108;DHT22;13090;53.422;7.670;2023-02-04T05:37:59;7.00;84.60
25108;DHT22;13090;53.422;7.670;2023-02-04T05:43:03;6.80;84.60
25108;DHT22;13090;53.422;7.670;2023-02-04T05:48:05;6.70;84.70
25108;DHT22;13090;53.422;7.670;2023-02-04T05:53:07;6.50;84.90
25108;DHT22;13090;53.422;7.670;2023-02-04T05:58:11;6.40;85.10
25108;DHT22;13090;53.422;7.670;2023-02-04T06:03:16;6.30;85.50
25108;DHT22;13090;53.422;7.670;2023-02-04T06:08:18;6.30;86.60
25108;DHT22;13090;53.422;7.670;2023-02-04T06:13:24;6.30;85.70
25108;DHT22;13090;53.422;7.670;2023-02-04T06:18:26;6.30;85.60
25108;DHT22;13090;53.422;7.670;2023-02-04T06:23:28;6.40;85.60
25108;DHT22;13090;53.422;7.670;2023-02-04T06:28:32;6.30;85.60
25108;DHT22;13090;53.422;7.670;2023-02-04T06:33:36;6.20;85.80
25108;DHT22;13090;53.422;7.670;2023-02-04T06:38:38;6.10;85.90
25108;DHT22;13090;53.422;7.670;2023-02-04T06:43:42;6.10;86.30
25108;DHT22;13090;53.422;7.670;2023-02-04T06:48:44;6.20;86.50
25108;DHT22;13090;53.422;7.670;2023-02-04T06:53:46;6.30;86.60
25108;DHT22;13090;53.422;7.670;2023-02-04T06:58:50;6.30;86.50
25108;DHT22;13090;53.422;7.670;2023-02-04T07:03:52;6.50;86.40
25108;DHT22;13090;53.422;7.670;2023-02-04T07:08:54;6.50;86.00
25108;DHT22;13090;53.422;7.670;2023-02-04T07:13:59;6.40;85.40
25108;DHT22;13090;53.422;7.670;2023-02-04T07:19:01;6.40;85.50
25108;DHT22;13090;53.422;7.670;2023-02-04T07:24:04;6.20;85.60
25108;DHT22;13090;53.422;7.670;2023-02-04T07:29:08;6.20;85.70
25108;DHT22;13090;53.422;7.670;2023-02-04T07:34:21;6.10;85.90
25108;DHT22;13090;53.422;7.670;2023-02-04T07:39:23;6.10;86.10
25108;DHT22;13090;53.422;7.670;2023-02-04T07:44:27;6.00;86.20
25108;DHT22;13090;53.422;7.670;2023-02-04T07:49:29;6.30;87.40
25108;DHT22;13090;53.422;7.670;2023-02-04T07:54:31;6.70;87.20
25108;DHT22;13090;53.422;7.670;2023-02-04T07:59:35;7.00;86.20
25108;DHT22;13090;53.422;7.670;2023-02-04T08:04:39;7.20;85.30
25108;DHT22;13090;53.422;7.670;2023-02-04T08:09:41;7.10;84.40
25108;DHT22;13090;53.422;7.670;2023-02-04T08:14:45;7.00;84.50
25108;DHT22;13090;53.422;7.670;2023-02-04T08:19:47;7.00;84.80
25108;DHT22;13090;53.422;7.670;2023-02-04T08:24:49;6.90;86.00
25108;DHT22;13090;53.422;7.670;2023-02-04T08:29:53;6.90;85.10
25108;DHT22;13090;53.422;7.670;2023-02-04T08:34:55;6.80;85.30
25108;DHT22;13090;53.422;7.670;2023-02-04T08:39:57;6.70;85.40
25108;DHT22;13090;53.422;7.670;2023-02-04T08:45:01;6.70;85.90
25108;DHT22;13090;53.422;7.670;2023-02-04T08:50:03;6.60;85.90
25108;DHT22;13090;53.422;7.670;2023-02-04T08:55:06;6.50;86.10
25108;DHT22;13090;53.422;7.670;2023-02-04T09:00:12;6.40;86.30
25108;DHT22;13090;53.422;7.670;2023-02-04T09:05:15;6.40;86.60
25108;DHT22;13090;53.422;7.670;2023-02-04T09:10:17;6.40;86.70
25108;DHT22;13090;53.422;7.670;2023-02-04T09:15:21;6.40;86.80
25108;DHT22;13090;53.422;7.670;2023-02-04T09:20:26;6.40;86.40
25108;DHT22;13090;53.422;7.670;2023-02-04T09:25:28;6.50;86.40
25108;DHT22;13090;53.422;7.670;2023-02-04T09:30:32;6.50;86.40
25108;DHT22;13090;53.422;7.670;2023-02-04T09:35:35;6.70;86.30
25108;DHT22;13090;53.422;7.670;2023-02-04T09:40:43;6.70;85.50
25108;DHT22;13090;53.422;7.670;2023-02-04T09:45:49;6.80;86.00
25108;DHT22;13090;53.422;7.670;2023-02-04T09:50:52;6.90;85.70
25108;DHT22;13090;53.422;7.670;2023-02-04T09:56:01;7.00;86.00
25108;DHT22;13090;53.422;7.670;2023-02-04T10:01:12;7.10;85.10
25108;DHT22;13090;53.422;7.670;2023-02-04T10:06:17;7.20;84.70
25108;DHT22;13090;53.422;7.670;2023-02-04T10:11:21;7.40;85.10
25108;DHT22;13090;53.422;7.670;2023-02-04T10:16:28;7.60;84.00
25108;DHT22;13090;53.422;7.670;2023-02-04T10:21:33;7.90;83.20
25108;DHT22;13090;53.422;7.670;2023-02-04T10:26:35;8.20;81.80
25108;DHT22;13090;53.422;7.670;2023-02-04T10:31:42;8.40;81.40
25108;DHT22;13090;53.422;7.670;2023-02-04T10:36:47;8.60;80.80
25108;DHT22;13090;53.422;7.670;2023-02-04T10:41:51;8.80;79.40
25108;DHT22;13090;53.422;7.670;2023-02-04T10:46:59;8.90;78.50
25108;DHT22;13090;53.422;7.670;2023-02-04T10:52:05;9.10;78.50
25108;DHT22;13090;53.422;7.670;2023-02-04T10:57:17;9.10;78.60
25108;DHT22;13090;53.422;7.670;2023-02-04T11:02:48;9.30;77.60
25108;DHT22;13090;53.422;7.670;2023-02-04T11:07:51;9.50;77.50
25108;DHT22;13090;53.422;7.670;2023-02-04T11:13:02;9.60;77.80
25108;DHT22;13090;53.422;7.670;2023-02-04T11:18:07;9.60;76.90
25108;DHT22;13090;53.422;7.670;2023-02-04T11:23:16;9.60;77.80
25108;DHT22;13090;53.422;7.670;2023-02-04T11:28:48;9.80;77.80
25108;DHT22;13090;53.422;7.670;2023-02-04T11:34:26;10.10;78.50
25108;DHT22;13090;53.422;7.670;2023-02-04T11:39:32;10.30;75.80
25108;DHT22;13090;53.422;7.670;2023-02-04T11:44:35;10.30;75.10
25108;DHT22;13090;53.422;7.670;2023-02-04T11:49:39;10.10;75.70
25108;DHT22;13090;53.422;7.670;2023-02-04T11:54:41;10.20;77.30
25108;DHT22;13090;53.422;7.670;2023-02-04T11:59:43;10.20;75.80
25108;DHT22;13090;53.422;7.670;2023-02-04T12:05:07;10.20;76.10
25108;DHT22;13090;53.422;7.670;2023-02-04T12:10:13;10.20;75.50
25108;DHT22;13090;53.422;7.670;2023-02-04T12:15:20;10.10;76.00
25108;DHT22;13090;53.422;7.670;2023-02-04T12:20:24;10.10;76.10
25108;DHT22;13090;53.422;7.670;2023-02-04T12:25:27;10.10;76.60
25108;DHT22;13090;53.422;7.670;2023-02-04T12:30:29;10.20;77.30
25108;DHT22;13090;53.422;7.670;2023-02-04T12:35:33;10.30;77.10
25108;DHT22;13090;53.422;7.670;2023-02-04T12:40:36;10.50;76.70
25108;DHT22;13090;53.422;7.670;2023-02-04T12:45:38;10.60;75.40
25108;DHT22;13090;53.422;7.670;2023-02-04T12:50:41;10.60;75.70
25108;DHT22;13090;53.422;7.670;2023-02-04T12:55:44;10.50;73.90
25108;DHT22;13090;53.422;7.670;2023-02-04T13:00:46;10.50;75.30
25108;DHT22;13090;53.422;7.670;2023-02-04T13:05:49;10.40;73.50
25108;DHT22;13090;53.422;7.670;2023-02-04T13:10:52;10.30;75.30
25108;DHT22;13090;53.422;7.670;2023-02-04T13:15:54;10.30;75.20
25108;DHT22;13090;53.422;7.670;2023-02-04T13:21:01;10.20;75.00
25108;DHT22;13090;53.422;7.670;2023-02-04T13:26:03;10.20;75.10
25108;DHT22;13090;53.422;7.670;2023-02-04T13:31:06;10.30;75.60
25108;DHT22;13090;53.422;7.670;2023-02-04T13:36:09;10.40;74.40
25108;DHT22;13090;53.422;7.670;2023-02-04T13:41:12;10.40;75.20
25108;DHT22;13090;53.422;7.670;2023-02-04T13:46:16;10.30;74.90
25108;DHT22;13090;53.422;7.670;2023-02-04T13:51:23;10.30;73.70
25108;DHT22;13090;53.422;7.670;2023-02-04T13:56:32;10.20;73.60
25108;DHT22;13090;53.422;7.670;2023-02-04T14:01:42;10.10;74.40
25108;DHT22;13090;53.422;7.670;2023-02-04T14:06:51;10.00;75.50
25108;DHT22;13090;53.422;7.670;2023-02-04T14:11:58;10.00;74.10
25108;DHT22;13090;53.422;7.670;2023-02-04T14:17:07;10.10;75.20
25108;DHT22;13090;53.422;7.670;2023-02-04T14:22:19;10.30;73.30
25108;DHT22;13090;53.422;7.670;2023-02-04T14:27:26;10.40;74.10
25108;DHT22;13090;53.422;7.670;2023-02-04T14:32:35;10.60;74.30
25108;DHT22;13090;53.422;7.670;2023-02-04T14:37:46;10.60;72.20
25108;DHT22;13090;53.422;7.670;2023-02-04T14:42:53;10.50;70.40
25108;DHT22;13090;53.422;7.670;2023-02-04T14:47:59;10.40;72.20
25108;DHT22;13090;53.422;7.670;2023-02-04T14:53:03;10.30;73.20
25108;DHT22;13090;53.422;7.670;2023-02-04T14:58:05;10.20;70.80
25108;DHT22;13090;53.422;7.670;2023-02-04T15:03:07;10.00;70.40
25108;DHT22;13090;53.422;7.670;2023-02-04T15:08:13;9.70;71.40
25108;DHT22;13090;53.422;7.670;2023-02-04T15:13:19;9.70;72.70
25108;DHT22;13090;53.422;7.670;2023-02-04T15:18:21;9.60;73.00
25108;DHT22;13090;53.422;7.670;2023-02-04T15:23:25;9.50;72.70
25108;DHT22;13090;53.422;7.670;2023-02-04T15:28:27;9.40;71.90
25108;DHT22;13090;53.422;7.670;2023-02-04T15:33:30;9.30;72.70
25108;DHT22;13090;53.422;7.670;2023-02-04T15:38:33;9.20;73.50
25108;DHT22;13090;53.422;7.670;2023-02-04T15:43:35;9.10;73.70
25108;DHT22;13090;53.422;7.670;2023-02-04T15:48:38;9.00;73.90
25108;DHT22;13090;53.422;7.670;2023-02-04T15:53:41;8.90;74.10
25108;DHT22;13090;53.422;7.670;2023-02-04T15:58:43;8.80;74.10
25108;DHT22;13090;53.422;7.670;2023-02-04T16:03:48;8.60;74.10
25108;DHT22;13090;53.422;7.670;2023-02-04T16:08:52;8.50;74.80
25108;DHT22;13090;53.422;7.670;2023-02-04T16:13:54;8.40;75.00
25108;DHT22;13090;53.422;7.670;2023-02-04T16:18:56;8.30;75.20
25108;DHT22;13090;53.422;7.670;2023-02-04T16:24:00;8.30;75.50
25108;DHT22;13090;53.422;7.670;2023-02-04T16:29:02;8.20;75.60
25108;DHT22;13090;53.422;7.670;2023-02-04T16:34:04;8.10;75.70
25108;DHT22;13090;53.422;7.670;2023-02-04T16:39:10;8.10;75.90
25108;DHT22;13090;53.422;7.670;2023-02-04T16:44:12;8.00;75.90
25108;DHT22;13090;53.422;7.670;2023-02-04T16:49:16;8.00;76.20
25108;DHT22;13090;53.422;7.670;2023-02-04T16:54:20;7.90;76.60
25108;DHT22;13090;53.422;7.670;2023-02-04T16:59:23;7.90;76.50
25108;DHT22;13090;53.422;7.670;2023-02-04T17:04:29;7.70;76.40
25108;DHT22;13090;53.422;7.670;2023-02-04T17:09:33;7.60;77.50
25108;DHT22;13090;53.422;7.670;2023-02-04T17:14:38;7.40;76.80
25108;DHT22;13090;53.422;7.670;2023-02-04T17:19:42;7.30;77.20
25108;DHT22;13090;53.422;7.670;2023-02-04T17:24:47;7.20;77.50
25108;DHT22;13090;53.422;7.670;2023-02-04T17:29:49;7.20;77.70
25108;DHT22;13090;53.422;7.670;2023-02-04T17:34:51;7.00;77.50
25108;DHT22;13090;53.422;7.670;2023-02-04T17:39:56;6.90;77.60
25108;DHT22;13090;53.422;7.670;2023-02-04T17:44:59;6.80;77.90
25108;DHT22;13090;53.422;7.670;2023-02-04T17:50:01;6.60;78.10
25108;DHT22;13090;53.422;7.670;2023-02-04T17:55:14;6.50;78.40
25108;DHT22;13090;53.422;7.670;2023-02-04T18:00:19;6.40;78.90
25108;DHT22;13090;53.422;7.670;2023-02-04T18:05:26;6.30;79.00
25108;DHT22;13090;53.422;7.670;2023-02-04T18:10:31;6.30;79.30
25108;DHT22;13090;53.422;7.670;2023-02-04T18:15:35;6.30;79.50
25108;DHT22;13090;53.422;7.670;2023-02-04T18:20:38;6.30;79.70
25108;DHT22;13090;53.422;7.670;2023-02-04T18:25:42;6.30;79.80
25108;DHT22;13090;53.422;7.670;2023-02-04T18:30:46;6.30;79.70
25108;DHT22;13090;53.422;7.670;2023-02-04T18:35:50;6.20;79.90
25108;DHT22;13090;53.422;7.670;2023-02-04T18:41:00;6.20;80.10
25108;DHT22;13090;53.422;7.670;2023-02-04T18:46:15;6.20;80.20
25108;DHT22;13090;53.422;7.670;2023-02-04T18:51:25;6.20;80.30
25108;DHT22;13090;53.422;7.670;2023-02-04T18:56:34;6.10;80.10
25108;DHT22;13090;53.422;7.670;2023-02-04T19:01:38;6.00;80.10
25108;DHT22;13090;53.422;7.670;2023-02-04T19:06:42;5.90;79.90
25108;DHT22;13090;53.422;7.670;2023-02-04T19:11:48;5.80;80.00
25108;DHT22;13090;53.422;7.670;2023-02-04T19:16:52;5.60;80.30
25108;DHT22;13090;53.422;7.670;2023-02-04T19:21:54;5.40;80.60
25108;DHT22;13090;53.422;7.670;2023-02-04T19:27:03;5.40;80.70
25108;DHT22;13090;53.422;7.670;2023-02-04T19:32:25;5.30;81.00
25108;DHT22;13090;53.422;7.670;2023-02-04T19:37:37;5.20;81.10
25108;DHT22;13090;53.422;7.670;2023-02-04T19:42:41;5.20;81.40
25108;DHT22;13090;53.422;7.670;2023-02-04T19:47:45;5.10;81.40
25108;DHT22;13090;53.422;7.670;2023-02-04T19:52:48;5.00;81.60
25108;DHT22;13090;53.422;7.670;2023-02-04T19:57:55;5.00;81.50
25108;DHT22;13090;53.422;7.670;2023-02-04T20:02:58;4.90;81.60
25108;DHT22;13090;53.422;7.670;2023-02-04T20:08:06;4.90;81.60
25108;DHT22;13090;53.422;7.670;2023-02-04T20:13:26;4.90;81.60
25108;DHT22;13090;53.422;7.670;2023-02-04T20:18:28;4.90;81.50
25108;DHT22;13090;53.422;7.670;2023-02-04T20:23:31;4.90;81.50
25108;DHT22;13090;53.422;7.670;2023-02-04T20:28:38;4.90;81.80
25108;DHT22;13090;53.422;7.670;2023-02-04T20:33:46;4.80;81.90
25108;DHT22;13090;53.422;7.670;2023-02-04T20:38:48;4.80;81.80
25108;DHT22;13090;53.422;7.670;2023-02-04T20:43:52;4.70;81.80
25108;DHT22;13090;53.422;7.670;2023-02-04T20:48:54;4.60;82.10
25108;DHT22;13090;53.422;7.670;2023-02-04T20:53:56;4.50;82.00
25108;DHT22;13090;53.422;7.670;2023-02-04T20:59:20;4.60;82.10
25108;DHT22;13090;53.422;7.670;2023-02-04T21:04:27;4.50;82.30
25108;DHT22;13090;53.422;7.670;2023-02-04T21:09:31;4.60;82.40
25108;DHT22;13090;53.422;7.670;2023-02-04T21:14:35;4.50;82.60
25108;DHT22;13090;53.422;7.670;2023-02-04T21:19:38;4.60;82.70
25108;DHT22;13090;53.422;7.670;2023-02-04T21:24:40;4.50;82.40
25108;DHT22;13090;53.422;7.670;2023-02-04T21:29:44;4.60;82.50
25108;DHT22;13090;53.422;7.670;2023-02-04T21:34:46;4.60;82.50
25108;DHT22;13090;53.422;7.670;2023-02-04T21:39:49;4.60;82.50
25108;DHT22;13090;53.422;7.670;2023-02-04T21:44:52;4.70;82.40
25108;DHT22;13090;53.422;7.670;2023-02-04T21:49:54;4.70;82.50
25108;DHT22;13090;53.422;7.670;2023-02-04T21:54:57;4.70;82.60
25108;DHT22;13090;53.422;7.670;2023-02-04T22:00:00;4.80;82.60
25108;DHT22;13090;53.422;7.670;2023-02-04T22:05:03;4.80;82.60
25108;DHT22;13090;53.422;7.670;2023-02-04T22:10:09;4.90;82.70
25108;DHT22;13090;53.422;7.670;2023-02-04T22:15:13;5.00;82.70
25108;DHT22;13090;53.422;7.670;2023-02-04T22:20:16;5.10;82.70
25108;DHT22;13090;53.422;7.670;2023-02-04T22:25:20;5.10;82.60
25108;DHT22;13090;53.422;7.670;2023-02-04T22:30:23;5.20;82.60
25108;DHT22;13090;53.422;7.670;2023-02-04T22:35:26;5.20;82.40
25108;DHT22;13090;53.422;7.670;2023-02-04T22:40:28;5.20;82.40
25108;DHT22;13090;53.422;7.670;2023-02-04T22:45:32;5.30;82.40
25108;DHT22;13090;53.422;7.670;2023-02-04T22:50:34;5.30;82.30
25108;DHT22;13090;53.422;7.670;2023-02-04T22:55:37;5.30;82.30
25108;DHT22;13090;53.422;7.670;2023-02-04T23:00:40;5.30;82.40
25108;DHT22;13090;53.422;7.670;2023-02-04T23:05:43;5.30;82.30
25108;DHT22;13090;53.422;7.670;2023-02-04T23:10:45;5.30;82.30
25108;DHT22;13090;53.422;7.670;2023-02-04T23:15:49;5.40;82.30
25108;DHT22;13090;53.422;7.670;2023-02-04T23:20:51;5.40;82.40
25108;DHT22;13090;53.422;7.670;2023-02-04T23:25:53;5.40;82.30
25108;DHT22;13090;53.422;7.670;2023-02-04T23:30:58;5.40;82.20
25108;DHT22;13090;53.422;7.670;2023-02-04T23:36:00;5.40;82.20
25108;DHT22;13090;53.422;7.670;2023-02-04T23:41:02;5.40;82.20
25108;DHT22;13090;53.422;7.670;2023-02-04T23:46:06;5.40;82.30
25108;DHT22;13090;53.422;7.670;2023-02-04T23:51:08;5.40;82.40
25108;DHT22;13090;53.422;7.670;2023-02-04T23:56:10;5.40;82.40
